Terminal Aerodrome Forecast
Issued by NWS Northern Indiana

Home | Current Version | Previous Version | Text Only | Print | Product List | Glossary Off
Versions: 1 2 3 4 5 6 7 8 9 10 11 12 13 14 15 16

000
FTUS43 KIWX 130540
TAFFWA
TAF
KFWA 130540Z 1306/1406 26010KT P6SM BKN045
     FM131000 24006KT P6SM BKN080
     FM131700 19012G18KT P6SM VCSH BKN100
     FM132200 23009KT 6SM -SN VCSH OVC040
     FM140000 25010KT 5SM -SN OVC020
     FM140200 31011G19KT 6SM -SN OVC015=

USA.gov is the U.S. government's official web portal to all federal, state and local government web resources and services.